Terminal Aerodrome Forecast
Issued by NWS

Home | Current Version | Previous Version | Text Only | Print | Product List | Glossary On
Versions: 1 2 3 4 5 6 7 8 9 10 11
976
FTUS44 KSJT 271136
TAFJCT
TAF
KJCT 271136Z 2712/2812 VRB05KT P6SM SCT250
     FM271500 18011G16KT P6SM SCT250
     FM271700 19015G23KT P6SM SCT250
     FM280200 18011KT P6SM SCT250=

USA.gov is the U.S. government's official web portal to all federal, state and local government web resources and services.